createdAt,value
2023-05-25T00:01:02.018Z,918.00
2023-05-25T00:01:52.374Z,919.00
2023-05-25T00:02:51.581Z,918.00
2023-05-25T00:03:51.434Z,914.00
2023-05-25T00:04:51.318Z,915.00
2023-05-25T00:05:51.372Z,914.00
2023-05-25T00:06:51.268Z,916.00
2023-05-25T00:07:51.237Z,913.00
2023-05-25T00:08:51.193Z,912.00
2023-05-25T00:09:51.171Z,908.00
2023-05-25T00:10:51.121Z,908.00
2023-05-25T00:11:51.709Z,906.00
2023-05-25T00:12:51.071Z,905.00
2023-05-25T00:13:51.041Z,905.00
2023-05-25T00:14:51.019Z,904.00
2023-05-25T00:15:51.003Z,905.00
2023-05-25T00:16:51.020Z,908.00
2023-05-25T00:17:51.030Z,909.00
2023-05-25T00:18:51.014Z,910.00
2023-05-25T00:19:51.059Z,910.00
2023-05-25T00:20:51.028Z,906.00
2023-05-25T00:21:51.049Z,906.00
2023-05-25T00:22:51.041Z,905.00
2023-05-25T00:23:51.119Z,906.00
2023-05-25T00:24:51.054Z,903.00
2023-05-25T00:25:51.103Z,902.00
2023-05-25T00:26:51.076Z,899.00
2023-05-25T00:27:51.098Z,898.00
2023-05-25T00:28:51.192Z,900.00
2023-05-25T00:29:51.108Z,901.00
2023-05-25T00:30:51.171Z,902.00
2023-05-25T00:31:51.127Z,901.00
2023-05-25T00:32:51.204Z,901.00
2023-05-25T00:33:51.144Z,899.00
2023-05-25T00:34:51.157Z,896.00
2023-05-25T00:35:51.153Z,895.00
2023-05-25T00:36:51.169Z,892.00
2023-05-25T00:37:51.188Z,890.00
2023-05-25T00:38:51.212Z,890.00
2023-05-25T00:39:51.206Z,886.00
2023-05-25T00:40:51.225Z,884.00
2023-05-25T00:41:51.226Z,887.00
2023-05-25T00:42:51.246Z,884.00
2023-05-25T00:43:51.261Z,885.00
2023-05-25T00:44:52.219Z,887.00
2023-05-25T00:45:51.270Z,884.00
2023-05-25T00:46:51.384Z,885.00
2023-05-25T00:47:51.355Z,885.00
2023-05-25T00:48:51.308Z,885.00
2023-05-25T00:49:51.325Z,881.00
2023-05-25T00:50:51.329Z,879.00
2023-05-25T00:51:51.319Z,881.00
2023-05-25T00:52:51.356Z,880.00
2023-05-25T00:53:51.360Z,881.00
2023-05-25T00:54:51.362Z,878.00
2023-05-25T00:55:51.339Z,881.00
2023-05-25T00:56:51.391Z,880.00
2023-05-25T00:57:51.385Z,881.00
2023-05-25T00:58:51.462Z,881.00
2023-05-25T00:59:51.400Z,881.00
2023-05-25T01:00:51.416Z,879.00
2023-05-25T01:01:51.504Z,878.00
2023-05-25T01:02:51.505Z,877.00
2023-05-25T01:03:51.483Z,879.00
2023-05-25T01:04:51.458Z,880.00
2023-05-25T01:05:51.469Z,879.00
2023-05-25T01:06:51.487Z,878.00
2023-05-25T01:07:51.486Z,878.00
2023-05-25T01:08:51.744Z,882.00
2023-05-25T01:09:51.519Z,881.00
2023-05-25T01:10:51.590Z,882.00
2023-05-25T01:11:51.542Z,880.00
2023-05-25T01:12:51.552Z,879.00
2023-05-25T01:13:51.570Z,875.00
2023-05-25T01:14:51.572Z,874.00
2023-05-25T01:15:51.699Z,871.00
2023-05-25T01:16:51.845Z,868.00
2023-05-25T01:17:51.670Z,866.00
2023-05-25T01:18:51.631Z,865.00
2023-05-25T01:20:02.102Z,867.00
2023-05-25T01:20:52.710Z,866.00
2023-05-25T01:21:51.672Z,868.00
2023-05-25T01:22:51.564Z,868.00
2023-05-25T01:23:51.568Z,867.00
2023-05-25T01:24:51.516Z,866.00
2023-05-25T01:25:51.506Z,866.00
2023-05-25T01:26:51.473Z,865.00
2023-05-25T01:27:51.495Z,864.00
2023-05-25T01:28:51.460Z,864.00
2023-05-25T01:29:51.450Z,864.00
2023-05-25T01:30:51.385Z,864.00
2023-05-25T01:31:51.631Z,865.00
2023-05-25T01:32:51.363Z,866.00
2023-05-25T01:33:51.335Z,868.00
2023-05-25T01:34:51.312Z,866.00
2023-05-25T01:35:51.329Z,866.00
2023-05-25T01:36:51.326Z,865.00
2023-05-25T01:37:51.356Z,863.00
2023-05-25T01:38:51.360Z,866.00
2023-05-25T01:39:51.372Z,865.00
2023-05-25T01:40:51.391Z,867.00
2023-05-25T01:41:51.417Z,863.00
2023-05-25T01:42:51.410Z,859.00
2023-05-25T01:43:51.759Z,858.00
2023-05-25T01:44:51.435Z,856.00
2023-05-25T01:45:51.482Z,856.00
2023-05-25T01:46:51.515Z,860.00
2023-05-25T01:47:51.562Z,860.00
2023-05-25T01:48:51.524Z,858.00
2023-05-25T01:49:51.514Z,857.00
2023-05-25T01:50:51.516Z,853.00
2023-05-25T01:51:51.562Z,849.00
2023-05-25T01:52:51.551Z,846.00
2023-05-25T01:53:51.564Z,849.00
2023-05-25T01:54:51.570Z,850.00
2023-05-25T01:55:51.594Z,854.00
2023-05-25T01:56:51.621Z,850.00
2023-05-25T01:57:51.622Z,849.00
2023-05-25T01:58:51.617Z,849.00
2023-05-25T01:59:51.709Z,843.00
2023-05-25T02:00:51.667Z,845.00
2023-05-25T02:01:53.483Z,848.00
2023-05-25T02:02:51.728Z,848.00
2023-05-25T02:03:51.781Z,847.00
2023-05-25T02:04:51.722Z,846.00
2023-05-25T02:05:52.260Z,845.00
2023-05-25T02:06:51.755Z,845.00
2023-05-25T02:07:51.771Z,845.00
2023-05-25T02:08:51.868Z,841.00
2023-05-25T02:09:51.799Z,837.00
2023-05-25T02:10:51.824Z,838.00
2023-05-25T02:11:51.872Z,837.00
2023-05-25T02:12:51.859Z,837.00
2023-05-25T02:13:51.875Z,836.00
2023-05-25T02:14:51.894Z,839.00
2023-05-25T02:15:51.949Z,841.00
2023-05-25T02:16:51.926Z,841.00
2023-05-25T02:17:51.978Z,840.00
2023-05-25T02:18:52.007Z,838.00
2023-05-25T02:19:52.035Z,835.00
2023-05-25T02:20:51.995Z,833.00
2023-05-25T02:21:52.045Z,832.00
2023-05-25T02:22:52.015Z,830.00
2023-05-25T02:23:52.032Z,831.00
2023-05-25T02:24:52.050Z,831.00
2023-05-25T02:25:52.047Z,830.00
2023-05-25T02:26:52.098Z,830.00
2023-05-25T02:27:52.087Z,830.00
2023-05-25T02:28:52.127Z,831.00
2023-05-25T02:29:52.112Z,830.00
2023-05-25T02:30:52.155Z,832.00
2023-05-25T02:31:52.170Z,828.00
2023-05-25T02:32:52.237Z,827.00
2023-05-25T02:33:52.189Z,828.00
2023-05-25T02:34:52.200Z,830.00
2023-05-25T02:35:52.229Z,832.00
2023-05-25T02:36:52.240Z,833.00
2023-05-25T02:37:52.259Z,834.00
2023-05-25T02:38:52.286Z,834.00
2023-05-25T02:39:52.297Z,831.00
2023-05-25T02:40:52.323Z,830.00
2023-05-25T02:41:52.338Z,826.00
2023-05-25T02:42:52.362Z,827.00
2023-05-25T02:43:52.411Z,827.00
2023-05-25T02:44:52.392Z,825.00
2023-05-25T02:45:52.427Z,825.00
2023-05-25T02:46:52.475Z,828.00
2023-05-25T02:47:52.556Z,830.00
2023-05-25T02:48:52.459Z,831.00
2023-05-25T02:49:52.509Z,831.00
2023-05-25T02:50:52.491Z,828.00
2023-05-25T02:51:52.504Z,828.00
2023-05-25T02:52:52.538Z,831.00
2023-05-25T02:53:52.534Z,833.00
2023-05-25T02:54:52.546Z,830.00
2023-05-25T02:55:52.573Z,830.00
2023-05-25T02:56:52.568Z,829.00
2023-05-25T02:57:52.578Z,826.00
2023-05-25T02:58:52.586Z,828.00
2023-05-25T02:59:52.616Z,827.00
2023-05-25T03:00:52.678Z,829.00
2023-05-25T03:01:52.635Z,829.00
2023-05-25T03:02:52.775Z,827.00
2023-05-25T03:03:52.817Z,826.00
2023-05-25T03:04:52.752Z,825.00
2023-05-25T03:05:52.713Z,822.00
2023-05-25T03:06:52.742Z,823.00
2023-05-25T03:07:52.753Z,825.00
2023-05-25T03:08:52.766Z,826.00
2023-05-25T03:09:52.798Z,821.00
2023-05-25T03:10:52.795Z,820.00
2023-05-25T03:11:52.824Z,820.00
2023-05-25T03:12:52.834Z,820.00
2023-05-25T03:13:52.848Z,822.00
2023-05-25T03:14:52.842Z,821.00
2023-05-25T03:15:52.885Z,822.00
2023-05-25T03:16:54.202Z,822.00
2023-05-25T03:17:52.992Z,820.00
2023-05-25T03:18:52.976Z,820.00
2023-05-25T03:19:52.966Z,820.00
2023-05-25T03:20:52.917Z,819.00
2023-05-25T03:21:52.953Z,818.00
2023-05-25T03:22:52.940Z,821.00
2023-05-25T03:23:52.977Z,823.00
2023-05-25T03:24:53.004Z,820.00
2023-05-25T03:25:53.001Z,821.00
2023-05-25T03:26:53.020Z,818.00
2023-05-25T03:27:53.053Z,813.00
2023-05-25T03:28:53.042Z,812.00
2023-05-25T03:29:53.062Z,812.00
2023-05-25T03:30:53.159Z,810.00
2023-05-25T03:31:53.193Z,808.00
2023-05-25T03:32:53.173Z,808.00
2023-05-25T03:33:53.130Z,808.00
2023-05-25T03:34:53.158Z,810.00
2023-05-25T03:35:53.170Z,812.00
2023-05-25T03:36:53.181Z,813.00
2023-05-25T03:37:53.197Z,810.00
2023-05-25T03:38:53.214Z,809.00
2023-05-25T03:39:53.231Z,812.00
2023-05-25T03:40:53.256Z,809.00
2023-05-25T03:41:53.280Z,805.00
2023-05-25T03:42:53.280Z,805.00
2023-05-25T03:43:53.307Z,807.00
2023-05-25T03:44:53.330Z,807.00
2023-05-25T03:45:53.369Z,807.00
2023-05-25T03:46:53.359Z,807.00
2023-05-25T03:47:53.465Z,805.00
2023-05-25T03:48:53.400Z,804.00
2023-05-25T03:49:53.418Z,806.00
2023-05-25T03:50:53.445Z,806.00
2023-05-25T03:51:53.452Z,804.00
2023-05-25T03:52:53.476Z,807.00
2023-05-25T03:53:53.530Z,806.00
2023-05-25T03:54:53.522Z,806.00
2023-05-25T03:55:53.531Z,805.00
2023-05-25T03:56:53.570Z,805.00
2023-05-25T03:57:53.561Z,802.00
2023-05-25T03:58:53.617Z,801.00
2023-05-25T03:59:54.299Z,801.00
2023-05-25T04:00:53.652Z,799.00
2023-05-25T04:01:53.773Z,797.00
2023-05-25T04:02:53.756Z,796.00
2023-05-25T04:03:53.875Z,798.00
2023-05-25T04:04:53.832Z,799.00
2023-05-25T04:05:53.742Z,797.00
2023-05-25T04:06:53.752Z,793.00
2023-05-25T04:07:53.781Z,791.00
2023-05-25T04:08:53.825Z,792.00
2023-05-25T04:09:53.829Z,791.00
2023-05-25T04:10:53.859Z,789.00
2023-05-25T04:11:53.879Z,789.00
2023-05-25T04:12:53.883Z,788.00
2023-05-25T04:13:53.903Z,787.00
2023-05-25T04:14:53.935Z,787.00
2023-05-25T04:15:53.990Z,789.00
2023-05-25T04:16:53.991Z,786.00
2023-05-25T04:17:54.116Z,784.00
2023-05-25T04:18:54.041Z,786.00
2023-05-25T04:19:54.087Z,786.00
2023-05-25T04:20:54.060Z,786.00
2023-05-25T04:21:54.171Z,787.00
2023-05-25T04:22:54.095Z,789.00
2023-05-25T04:23:54.141Z,787.00
2023-05-25T04:24:54.149Z,788.00
2023-05-25T04:25:54.173Z,787.00
2023-05-25T04:26:54.243Z,785.00
2023-05-25T04:27:54.204Z,786.00
2023-05-25T04:28:54.207Z,786.00
2023-05-25T04:29:54.220Z,786.00
2023-05-25T04:30:54.238Z,787.00
2023-05-25T04:31:54.295Z,789.00
2023-05-25T04:32:54.329Z,791.00
2023-05-25T04:33:54.297Z,788.00
2023-05-25T04:34:54.326Z,789.00
2023-05-25T04:35:54.367Z,788.00
2023-05-25T04:36:54.353Z,787.00
2023-05-25T04:37:54.385Z,786.00
2023-05-25T04:38:54.427Z,785.00
2023-05-25T04:39:54.434Z,785.00
2023-05-25T04:40:54.463Z,784.00
2023-05-25T04:41:54.478Z,786.00
2023-05-25T04:42:54.507Z,781.00
2023-05-25T04:44:07.827Z,779.00
2023-05-25T04:44:55.517Z,779.00
2023-05-25T04:45:54.525Z,779.00
2023-05-25T04:46:54.474Z,775.00
2023-05-25T04:47:54.452Z,775.00
2023-05-25T04:48:54.434Z,775.00
2023-05-25T04:49:54.395Z,780.00
2023-05-25T04:50:54.373Z,780.00
2023-05-25T04:51:54.343Z,780.00
2023-05-25T04:52:54.325Z,781.00
2023-05-25T04:53:54.377Z,780.00
2023-05-25T04:54:54.294Z,779.00
2023-05-25T04:55:54.267Z,782.00
2023-05-25T04:56:54.255Z,782.00
2023-05-25T04:57:54.279Z,783.00
2023-05-25T04:58:54.300Z,783.00
2023-05-25T04:59:54.328Z,781.00
2023-05-25T05:00:54.372Z,781.00
2023-05-25T05:01:54.487Z,783.00
2023-05-25T05:02:54.447Z,782.00
2023-05-25T05:03:54.459Z,778.00
2023-05-25T05:04:54.417Z,752.00
2023-05-25T05:05:54.488Z,745.00
2023-05-25T05:06:54.848Z,736.00
2023-05-25T05:07:54.511Z,727.00
2023-05-25T05:08:54.595Z,718.00
2023-05-25T05:09:54.586Z,719.00
2023-05-25T05:10:54.584Z,735.00
2023-05-25T05:11:54.566Z,753.00
2023-05-25T05:12:54.573Z,750.00
2023-05-25T05:13:54.598Z,743.00
2023-05-25T05:14:54.614Z,745.00
2023-05-25T05:15:54.674Z,745.00
2023-05-25T05:16:54.708Z,742.00
2023-05-25T05:17:54.698Z,740.00
2023-05-25T05:18:54.706Z,759.00
2023-05-25T05:19:54.747Z,790.00
2023-05-25T05:20:54.743Z,762.00
2023-05-25T05:21:54.749Z,764.00
2023-05-25T05:22:54.760Z,772.00
2023-05-25T05:23:54.803Z,786.00
2023-05-25T05:24:54.782Z,793.00
2023-05-25T05:25:54.801Z,812.00
2023-05-25T05:26:57.378Z,818.00
2023-05-25T05:27:54.791Z,883.00
2023-05-25T05:28:54.771Z,895.00
2023-05-25T05:29:54.800Z,909.00
2023-05-25T05:30:54.729Z,972.00
2023-05-25T05:31:54.908Z,1026.00
2023-05-25T05:32:54.728Z,1044.00
2023-05-25T05:33:54.696Z,1310.00
2023-05-25T05:34:54.597Z,1187.00
2023-05-25T05:35:54.547Z,1211.00
2023-05-25T05:36:58.124Z,1208.00
2023-05-25T05:37:54.486Z,1298.00
2023-05-25T05:38:54.464Z,1366.00
2023-05-25T05:39:54.427Z,1345.00
2023-05-25T05:40:54.473Z,1378.00
2023-05-25T05:41:54.361Z,1405.00
2023-05-25T05:42:54.335Z,1439.00
2023-05-25T05:43:54.310Z,1484.00
2023-05-25T05:44:54.284Z,1518.00
2023-05-25T05:45:54.243Z,1610.00
2023-05-25T05:46:54.371Z,1608.00
2023-05-25T05:47:54.356Z,1610.00
2023-05-25T05:48:54.364Z,1711.00
2023-05-25T05:49:54.147Z,1734.00
2023-05-25T05:50:54.085Z,1715.00
2023-05-25T05:51:54.075Z,1725.00
2023-05-25T05:52:54.034Z,1859.00
2023-05-25T05:53:54.135Z,1854.00
2023-05-25T05:54:53.959Z,1835.00
2023-05-25T05:55:56.110Z,1851.00
2023-05-25T05:56:54.027Z,1872.00
2023-05-25T05:57:54.094Z,1895.00
2023-05-25T05:58:54.851Z,1926.00
2023-05-25T05:59:54.151Z,1985.00
2023-05-25T06:00:54.049Z,2038.00
2023-05-25T06:01:54.164Z,2061.00
2023-05-25T06:02:54.165Z,2109.00
2023-05-25T06:03:54.088Z,2137.00
2023-05-25T06:04:54.062Z,2178.00
2023-05-25T06:05:54.091Z,2271.00
2023-05-25T06:06:54.049Z,2279.00
2023-05-25T06:07:54.056Z,2305.00
2023-05-25T06:08:54.038Z,2330.00
2023-05-25T06:09:54.060Z,2351.00
2023-05-25T06:10:54.039Z,2384.00
2023-05-25T06:11:54.046Z,2393.00
2023-05-25T06:12:54.048Z,2440.00
2023-05-25T06:13:55.338Z,2540.00
2023-05-25T06:14:54.120Z,2530.00
2023-05-25T06:15:54.136Z,2583.00
2023-05-25T06:16:54.106Z,2592.00
2023-05-25T06:17:54.150Z,2692.00
2023-05-25T06:18:54.773Z,2686.00
2023-05-25T06:19:54.156Z,2413.00
2023-05-25T06:20:53.958Z,2167.00
2023-05-25T06:21:53.976Z,2391.00
2023-05-25T06:22:53.945Z,2412.00
2023-05-25T06:23:53.991Z,2199.00
2023-05-25T06:24:53.940Z,2165.00
2023-05-25T06:25:53.986Z,2087.00
2023-05-25T06:26:53.932Z,1982.00
2023-05-25T06:27:54.179Z,2158.00
2023-05-25T06:28:53.934Z,2191.00
2023-05-25T06:29:54.171Z,2171.00
2023-05-25T06:30:53.928Z,1973.00
2023-05-25T06:31:54.070Z,1936.00
2023-05-25T06:32:53.969Z,1445.00
2023-05-25T06:33:53.940Z,1262.00
2023-05-25T06:34:55.493Z,1060.00
2023-05-25T06:35:54.280Z,1020.00
2023-05-25T06:36:53.935Z,1042.00
2023-05-25T06:37:53.969Z,1063.00
2023-05-25T06:38:54.393Z,1142.00
2023-05-25T06:39:56.242Z,1163.00
2023-05-25T06:40:53.925Z,1209.00
2023-05-25T06:41:54.787Z,1216.00
2023-05-25T06:42:53.872Z,1227.00
2023-05-25T06:43:54.183Z,1291.00
2023-05-25T06:44:53.811Z,1312.00
2023-05-25T06:45:53.818Z,1335.00
2023-05-25T06:46:53.750Z,1365.00
2023-05-25T06:47:53.772Z,1398.00
2023-05-25T06:48:53.689Z,1437.00
2023-05-25T06:49:53.642Z,1459.00
2023-05-25T06:50:53.613Z,1543.00
2023-05-25T06:51:53.612Z,1553.00
2023-05-25T06:52:53.563Z,1596.00
2023-05-25T06:53:53.517Z,1619.00
2023-05-25T06:54:53.492Z,1675.00
2023-05-25T06:55:53.414Z,1673.00
2023-05-25T06:56:53.399Z,1729.00
2023-05-25T06:57:53.354Z,1773.00
2023-05-25T06:58:53.317Z,1791.00
2023-05-25T06:59:53.280Z,1837.00
2023-05-25T07:00:53.259Z,1841.00
2023-05-25T07:01:53.332Z,1848.00
2023-05-25T07:02:53.370Z,1947.00
2023-05-25T07:03:53.124Z,1967.00
2023-05-25T07:04:53.127Z,1990.00
2023-05-25T07:05:53.035Z,2016.00
2023-05-25T07:06:53.032Z,2047.00
2023-05-25T07:07:52.956Z,2087.00
2023-05-25T07:08:53.336Z,2124.00
2023-05-25T07:09:52.899Z,2149.00
2023-05-25T07:10:52.822Z,2176.00
2023-05-25T07:11:53.376Z,2192.00
2023-05-25T07:12:52.764Z,2224.00
2023-05-25T07:13:52.736Z,2248.00
2023-05-25T07:14:52.777Z,2246.00
2023-05-25T07:15:52.739Z,2287.00
2023-05-25T07:16:52.681Z,2294.00
2023-05-25T07:17:52.744Z,2316.00
2023-05-25T07:18:52.807Z,2324.00
2023-05-25T07:19:52.664Z,2340.00
2023-05-25T07:20:52.530Z,2354.00
2023-05-25T07:21:52.518Z,2363.00
2023-05-25T07:22:53.342Z,2128.00
2023-05-25T07:23:52.754Z,1790.00
2023-05-25T07:24:52.427Z,2013.00
2023-05-25T07:25:52.423Z,1651.00
2023-05-25T07:26:52.381Z,1905.00
2023-05-25T07:27:52.392Z,1714.00
2023-05-25T07:28:52.371Z,1655.00
2023-05-25T07:29:52.409Z,1719.00
2023-05-25T07:30:52.433Z,1585.00
2023-05-25T07:31:52.448Z,1568.00
2023-05-25T07:32:52.401Z,1469.00
2023-05-25T07:33:52.396Z,1632.00
2023-05-25T07:34:52.405Z,1659.00
2023-05-25T07:35:52.417Z,1634.00
2023-05-25T07:36:52.409Z,1749.00
2023-05-25T07:37:52.409Z,1772.00
2023-05-25T07:38:52.443Z,1797.00
2023-05-25T07:39:52.424Z,1881.00
2023-05-25T07:40:52.449Z,1899.00
2023-05-25T07:41:52.477Z,1914.00
2023-05-25T07:42:52.501Z,1955.00
2023-05-25T07:43:52.563Z,1965.00
2023-05-25T07:44:52.561Z,1973.00
2023-05-25T07:45:52.568Z,2025.00
2023-05-25T07:46:53.484Z,2013.00
2023-05-25T07:47:52.817Z,2021.00
2023-05-25T07:48:52.669Z,2023.00
2023-05-25T07:49:52.680Z,2034.00
2023-05-25T07:50:53.403Z,2038.00
2023-05-25T07:51:52.726Z,2049.00
2023-05-25T07:52:52.794Z,2065.00
2023-05-25T07:53:53.167Z,2077.00
2023-05-25T07:54:52.841Z,2094.00
2023-05-25T07:55:52.799Z,2100.00
2023-05-25T07:56:52.856Z,2105.00
2023-05-25T07:57:52.820Z,2111.00
2023-05-25T07:58:52.896Z,2119.00
2023-05-25T07:59:52.836Z,2132.00
2023-05-25T08:00:52.910Z,2196.00
2023-05-25T08:01:52.885Z,2219.00
2023-05-25T08:02:53.113Z,2240.00
2023-05-25T08:03:52.983Z,2280.00
2023-05-25T08:04:52.930Z,2297.00
2023-05-25T08:05:52.977Z,2305.00
2023-05-25T08:06:52.903Z,2478.00
2023-05-25T08:07:52.954Z,2447.00
2023-05-25T08:08:52.884Z,2443.00
2023-05-25T08:09:52.892Z,2451.00
2023-05-25T08:10:52.871Z,2465.00
2023-05-25T08:11:55.971Z,2356.00
2023-05-25T08:12:55.684Z,2299.00
2023-05-25T08:13:52.781Z,2195.00
2023-05-25T08:14:52.709Z,1928.00
2023-05-25T08:15:52.664Z,1596.00
2023-05-25T08:16:52.713Z,1413.00
2023-05-25T08:17:52.658Z,1162.00
2023-05-25T08:18:52.556Z,1180.00
2023-05-25T08:19:52.505Z,1235.00
2023-05-25T08:20:52.541Z,1080.00
2023-05-25T08:21:52.422Z,1061.00
2023-05-25T08:22:52.447Z,1110.00
2023-05-25T08:23:52.334Z,1329.00
2023-05-25T08:24:52.292Z,1241.00
2023-05-25T08:25:52.266Z,1208.00
2023-05-25T08:26:54.376Z,1229.00
2023-05-25T08:27:52.190Z,1288.00
2023-05-25T08:28:52.137Z,1278.00
2023-05-25T08:29:52.103Z,1273.00
2023-05-25T08:30:52.083Z,1278.00
2023-05-25T08:31:52.011Z,1287.00
2023-05-25T08:32:51.997Z,1315.00
2023-05-25T08:33:51.948Z,1315.00
2023-05-25T08:34:52.894Z,1315.00
2023-05-25T08:35:51.832Z,1188.00
2023-05-25T08:36:51.792Z,1257.00
2023-05-25T08:37:51.883Z,1280.00
2023-05-25T08:38:51.702Z,1220.00
2023-05-25T08:39:51.651Z,1141.00
2023-05-25T08:40:51.600Z,1130.00
2023-05-25T08:41:51.559Z,1137.00
2023-05-25T08:42:53.717Z,1208.00
2023-05-25T08:43:51.482Z,1079.00
2023-05-25T08:44:51.430Z,1088.00
2023-05-25T08:45:51.531Z,1082.00
2023-05-25T08:46:51.398Z,1076.00
2023-05-25T08:47:51.442Z,1064.00
2023-05-25T08:48:51.392Z,1004.00
2023-05-25T08:49:51.350Z,1022.00
2023-05-25T08:50:51.345Z,1037.00
2023-05-25T08:51:51.347Z,1036.00
2023-05-25T08:52:51.417Z,1070.00
2023-05-25T08:53:51.341Z,1082.00
2023-05-25T08:54:51.343Z,1085.00
2023-05-25T08:55:51.341Z,1078.00
2023-05-25T08:56:51.368Z,1032.00
2023-05-25T08:57:51.353Z,1092.00
2023-05-25T08:58:51.361Z,1060.00
2023-05-25T08:59:51.361Z,1059.00
2023-05-25T09:00:51.351Z,1070.00
2023-05-25T09:01:51.414Z,1143.00
2023-05-25T09:02:51.549Z,1128.00
2023-05-25T09:03:51.509Z,1112.00
2023-05-25T09:04:51.376Z,1110.00
2023-05-25T09:05:51.427Z,1113.00
2023-05-25T09:07:05.800Z,1115.00
2023-05-25T09:07:52.363Z,1120.00
2023-05-25T09:08:51.314Z,1129.00
2023-05-25T09:09:51.287Z,1085.00
2023-05-25T09:10:51.240Z,1086.00
2023-05-25T09:11:51.208Z,1065.00
2023-05-25T09:12:51.734Z,1058.00
2023-05-25T09:13:51.120Z,1050.00
2023-05-25T09:14:51.059Z,917.00
2023-05-25T09:15:51.017Z,935.00
2023-05-25T09:16:51.056Z,887.00
2023-05-25T09:17:50.982Z,826.00
2023-05-25T09:18:50.932Z,818.00
2023-05-25T09:19:51.046Z,783.00
2023-05-25T09:20:51.256Z,850.00
2023-05-25T09:21:54.945Z,829.00
2023-05-25T09:22:51.978Z,828.00
2023-05-25T09:23:51.429Z,816.00
2023-05-25T09:24:50.799Z,962.00
2023-05-25T09:25:50.810Z,844.00
2023-05-25T09:26:50.725Z,951.00
2023-05-25T09:27:50.672Z,971.00
2023-05-25T09:28:50.637Z,1017.00
2023-05-25T09:29:50.648Z,1006.00
2023-05-25T09:30:50.553Z,923.00
2023-05-25T09:31:50.531Z,1006.00
2023-05-25T09:32:50.539Z,1022.00
2023-05-25T09:33:50.510Z,1026.00
2023-05-25T09:34:50.529Z,1044.00
2023-05-25T09:35:50.654Z,1041.00
2023-05-25T09:36:50.788Z,1046.00
2023-05-25T09:37:50.700Z,1094.00
2023-05-25T09:38:50.626Z,1113.00
2023-05-25T09:39:50.555Z,1113.00
2023-05-25T09:40:50.510Z,1220.00
2023-05-25T09:41:50.501Z,1232.00
2023-05-25T09:42:50.487Z,1248.00
2023-05-25T09:44:50.437Z,1274.00
2023-05-25T09:45:50.404Z,1288.00
2023-05-25T09:46:50.342Z,1304.00
2023-05-25T09:47:50.318Z,1333.00
2023-05-25T09:48:51.959Z,1364.00
2023-05-25T09:49:50.215Z,1368.00
2023-05-25T09:50:50.356Z,1377.00
2023-05-25T09:51:50.134Z,1378.00
2023-05-25T09:52:50.059Z,1380.00
2023-05-25T09:53:50.016Z,1385.00
2023-05-25T09:54:49.946Z,1414.00
2023-05-25T09:55:53.723Z,1428.00
2023-05-25T09:56:50.844Z,1430.00
2023-05-25T09:57:49.797Z,1433.00
2023-05-25T09:58:49.735Z,1466.00
2023-05-25T09:59:49.801Z,1506.00
2023-05-25T10:00:49.681Z,1510.00
2023-05-25T10:01:49.698Z,1521.00
2023-05-25T10:02:49.843Z,1535.00
2023-05-25T10:04:02.791Z,1560.00
2023-05-25T10:04:50.426Z,1520.00
2023-05-25T10:05:49.940Z,1515.00
2023-05-25T10:06:49.309Z,1517.00
2023-05-25T10:07:49.247Z,1513.00
2023-05-25T10:08:49.266Z,1652.00
2023-05-25T10:09:49.138Z,1632.00
2023-05-25T10:10:49.112Z,1619.00
2023-05-25T10:11:49.028Z,1591.00
2023-05-25T10:12:48.986Z,1449.00
2023-05-25T10:13:48.989Z,1484.00
2023-05-25T10:14:48.882Z,1502.00
2023-05-25T10:15:48.854Z,1502.00
2023-05-25T10:16:48.767Z,1492.00
2023-05-25T10:17:48.739Z,1477.00
2023-05-25T10:18:49.471Z,1465.00
2023-05-25T10:19:48.672Z,1466.00
2023-05-25T10:20:48.798Z,1466.00
2023-05-25T10:21:48.654Z,1461.00
2023-05-25T10:22:48.745Z,1457.00
2023-05-25T10:23:48.750Z,1454.00
2023-05-25T10:24:48.760Z,1448.00
2023-05-25T10:25:48.659Z,1443.00
2023-05-25T10:26:48.672Z,1438.00
2023-05-25T10:27:48.672Z,1436.00
2023-05-25T10:28:48.772Z,1435.00
2023-05-25T10:29:48.689Z,1433.00
2023-05-25T10:30:48.697Z,1428.00
2023-05-25T10:31:48.707Z,1426.00
2023-05-25T10:32:48.895Z,1423.00
2023-05-25T10:33:52.043Z,1425.00
2023-05-25T10:34:48.713Z,1423.00
2023-05-25T10:36:02.433Z,1422.00
2023-05-25T10:36:49.643Z,1424.00
2023-05-25T10:37:48.669Z,1430.00
2023-05-25T10:38:48.577Z,1433.00
2023-05-25T10:39:49.558Z,1434.00
2023-05-25T10:40:48.549Z,1432.00
2023-05-25T10:41:48.500Z,1437.00
2023-05-25T10:42:48.480Z,1437.00
2023-05-25T10:43:48.486Z,1439.00
2023-05-25T10:44:48.492Z,1444.00
2023-05-25T10:45:48.391Z,1452.00
2023-05-25T10:46:48.409Z,1454.00
2023-05-25T10:47:48.376Z,1458.00
2023-05-25T10:48:48.296Z,1462.00
2023-05-25T10:49:48.316Z,1460.00
2023-05-25T10:50:48.328Z,1461.00
2023-05-25T10:51:48.892Z,1462.00
2023-05-25T10:52:48.380Z,1460.00
2023-05-25T10:53:48.423Z,1460.00
2023-05-25T10:54:48.427Z,1456.00
2023-05-25T10:55:48.469Z,1456.00
2023-05-25T10:56:48.477Z,1453.00
2023-05-25T10:57:48.606Z,1453.00
2023-05-25T10:58:48.535Z,1453.00
2023-05-25T10:59:48.550Z,1453.00
2023-05-25T11:00:48.684Z,1449.00
2023-05-25T11:01:48.651Z,1445.00
2023-05-25T11:02:48.656Z,1445.00
2023-05-25T11:03:48.743Z,1446.00
2023-05-25T11:04:48.676Z,1444.00
2023-05-25T11:05:48.697Z,1440.00
2023-05-25T11:06:48.722Z,1439.00
2023-05-25T11:07:48.783Z,1441.00
2023-05-25T11:08:48.817Z,1442.00
2023-05-25T11:09:48.777Z,1439.00
2023-05-25T11:10:48.801Z,1437.00
2023-05-25T11:11:48.862Z,1433.00
2023-05-25T11:12:48.868Z,1429.00
2023-05-25T11:13:48.866Z,1430.00
2023-05-25T11:14:48.885Z,1429.00
2023-05-25T11:15:48.873Z,1428.00
2023-05-25T11:16:49.499Z,1432.00
2023-05-25T11:17:48.945Z,1509.00
2023-05-25T11:18:48.960Z,1525.00
2023-05-25T11:19:51.131Z,1590.00
2023-05-25T11:20:49.000Z,1608.00
2023-05-25T11:21:48.885Z,1636.00
2023-05-25T11:22:51.017Z,1662.00
2023-05-25T11:23:48.860Z,1705.00
2023-05-25T11:24:48.807Z,1736.00
2023-05-25T11:25:48.760Z,1755.00
2023-05-25T11:26:48.737Z,1808.00
2023-05-25T11:27:48.699Z,1839.00
2023-05-25T11:28:48.696Z,1896.00
2023-05-25T11:29:48.664Z,1909.00
2023-05-25T11:30:48.672Z,1951.00
2023-05-25T11:31:48.776Z,1977.00
2023-05-25T11:32:48.590Z,1988.00
2023-05-25T11:33:48.565Z,1978.00
2023-05-25T11:34:48.506Z,1978.00
2023-05-25T11:35:48.480Z,2058.00
2023-05-25T11:36:48.434Z,2066.00
2023-05-25T11:37:48.446Z,2074.00
2023-05-25T11:39:02.425Z,2069.00
2023-05-25T11:39:49.404Z,2072.00
2023-05-25T11:40:48.707Z,2109.00
2023-05-25T11:41:48.268Z,2121.00
2023-05-25T11:42:48.236Z,2164.00
2023-05-25T11:43:48.196Z,2167.00
2023-05-25T11:44:48.166Z,2186.00
2023-05-25T11:45:48.133Z,2263.00
2023-05-25T11:46:48.122Z,2272.00
2023-05-25T11:47:48.069Z,2243.00
2023-05-25T11:48:48.076Z,2234.00
2023-05-25T11:49:47.966Z,2237.00
2023-05-25T11:50:47.904Z,2278.00
2023-05-25T11:51:47.846Z,2317.00
2023-05-25T11:52:47.824Z,2342.00
2023-05-25T11:53:47.834Z,2428.00
2023-05-25T11:54:47.810Z,2426.00
2023-05-25T11:55:47.834Z,2443.00
2023-05-25T11:56:47.785Z,2471.00
2023-05-25T11:57:47.776Z,2568.00
2023-05-25T11:58:47.728Z,2555.00
2023-05-25T11:59:47.733Z,2562.00
2023-05-25T12:00:47.696Z,2586.00
2023-05-25T12:01:47.681Z,2642.00
2023-05-25T12:02:47.733Z,2661.00
2023-05-25T12:03:48.553Z,2671.00
2023-05-25T12:04:47.700Z,2681.00
2023-05-25T12:05:47.652Z,2753.00
2023-05-25T12:06:47.637Z,2748.00
2023-05-25T12:07:47.610Z,2758.00
2023-05-25T12:08:47.571Z,2797.00
2023-05-25T12:09:47.564Z,2823.00
2023-05-25T12:10:48.397Z,2909.00
2023-05-25T12:11:47.566Z,2891.00
2023-05-25T12:12:47.535Z,2899.00
2023-05-25T12:13:47.561Z,2916.00
2023-05-25T12:14:47.504Z,2939.00
2023-05-25T12:15:47.520Z,2956.00
2023-05-25T12:16:47.503Z,3002.00
2023-05-25T12:17:47.482Z,3050.00